sensor_id;sensor_type;location;lat;lon;timestamp;temperature;humidity
65058;HTU21D;51644;51.068;5.860;2022-08-21T00:01:05;18.89;71.71
65058;HTU21D;51644;51.068;5.860;2022-08-21T00:02:14;18.88;71.84
65058;HTU21D;51644;51.068;5.860;2022-08-21T00:03:12;18.88;71.87
65058;HTU21D;51644;51.068;5.860;2022-08-21T00:04:12;18.91;71.74
65058;HTU21D;51644;51.068;5.860;2022-08-21T00:05:11;18.93;71.61
65058;HTU21D;51644;51.068;5.860;2022-08-21T00:06:10;18.93;71.59
65058;HTU21D;51644;51.068;5.860;2022-08-21T00:07:08;18.94;71.58
65058;HTU21D;51644;51.068;5.860;2022-08-21T00:08:08;18.96;71.50
65058;HTU21D;51644;51.068;5.860;2022-08-21T00:09:10;18.95;71.34
65058;HTU21D;51644;51.068;5.860;2022-08-21T00:10:10;18.97;71.17
65058;HTU21D;51644;51.068;5.860;2022-08-21T00:11:09;18.99;71.13
65058;HTU21D;51644;51.068;5.860;2022-08-21T00:12:09;18.99;71.08
65058;HTU21D;51644;51.068;5.860;2022-08-21T00:13:08;18.99;71.10
65058;HTU21D;51644;51.068;5.860;2022-08-21T00:14:09;18.96;71.09
65058;HTU21D;51644;51.068;5.860;2022-08-21T00:15:13;18.94;71.14
65058;HTU21D;51644;51.068;5.860;2022-08-21T00:16:12;18.93;71.27
65058;HTU21D;51644;51.068;5.860;2022-08-21T00:17:11;18.92;71.38
65058;HTU21D;51644;51.068;5.860;2022-08-21T00:18:10;18.89;71.35
65058;HTU21D;51644;51.068;5.860;2022-08-21T00:19:09;18.86;71.45
65058;HTU21D;51644;51.068;5.860;2022-08-21T00:20:12;18.82;71.55
65058;HTU21D;51644;51.068;5.860;2022-08-21T00:21:13;18.80;71.68
65058;HTU21D;51644;51.068;5.860;2022-08-21T00:22:12;18.74;71.84
65058;HTU21D;51644;51.068;5.860;2022-08-21T00:23:11;18.71;72.02
65058;HTU21D;51644;51.068;5.860;2022-08-21T00:24:10;18.67;72.15
65058;HTU21D;51644;51.068;5.860;2022-08-21T00:25:10;18.63;72.27
65058;HTU21D;51644;51.068;5.860;2022-08-21T00:26:09;18.58;72.37
65058;HTU21D;51644;51.068;5.860;2022-08-21T00:27:08;18.56;72.48
65058;HTU21D;51644;51.068;5.860;2022-08-21T00:28:06;18.52;72.61
65058;HTU21D;51644;51.068;5.860;2022-08-21T00:29:05;18.49;72.71
65058;HTU21D;51644;51.068;5.860;2022-08-21T00:30:07;18.46;72.81
65058;HTU21D;51644;51.068;5.860;2022-08-21T00:31:07;18.43;72.87
65058;HTU21D;51644;51.068;5.860;2022-08-21T00:32:05;18.41;72.98
65058;HTU21D;51644;51.068;5.860;2022-08-21T00:33:05;18.39;73.04
65058;HTU21D;51644;51.068;5.860;2022-08-21T00:34:04;18.38;73.12
65058;HTU21D;51644;51.068;5.860;2022-08-21T00:35:05;18.36;73.12
65058;HTU21D;51644;51.068;5.860;2022-08-21T00:36:04;18.36;73.18
65058;HTU21D;51644;51.068;5.860;2022-08-21T00:37:03;18.35;73.23
65058;HTU21D;51644;51.068;5.860;2022-08-21T00:38:04;18.36;73.26
65058;HTU21D;51644;51.068;5.860;2022-08-21T00:39:07;18.36;73.19
65058;HTU21D;51644;51.068;5.860;2022-08-21T00:40:10;18.36;73.15
65058;HTU21D;51644;51.068;5.860;2022-08-21T00:41:11;18.35;73.18
65058;HTU21D;51644;51.068;5.860;2022-08-21T00:42:13;18.34;73.28
65058;HTU21D;51644;51.068;5.860;2022-08-21T00:43:20;18.33;73.35
65058;HTU21D;51644;51.068;5.860;2022-08-21T00:44:19;18.32;73.29
65058;HTU21D;51644;51.068;5.860;2022-08-21T00:45:17;18.33;73.30
65058;HTU21D;51644;51.068;5.860;2022-08-21T00:46:17;18.32;73.38
65058;HTU21D;51644;51.068;5.860;2022-08-21T00:47:35;18.33;73.39
65058;HTU21D;51644;51.068;5.860;2022-08-21T00:48:34;18.33;73.45
65058;HTU21D;51644;51.068;5.860;2022-08-21T00:49:33;18.33;73.40
65058;HTU21D;51644;51.068;5.860;2022-08-21T00:50:49;18.32;73.41
65058;HTU21D;51644;51.068;5.860;2022-08-21T00:51:51;18.29;73.44
65058;HTU21D;51644;51.068;5.860;2022-08-21T00:52:52;18.27;73.52
65058;HTU21D;51644;51.068;5.860;2022-08-21T00:53:56;18.25;73.56
65058;HTU21D;51644;51.068;5.860;2022-08-21T00:54:58;18.22;73.61
65058;HTU21D;51644;51.068;5.860;2022-08-21T00:55:59;18.20;73.76
65058;HTU21D;51644;51.068;5.860;2022-08-21T00:57:07;18.19;73.80
65058;HTU21D;51644;51.068;5.860;2022-08-21T00:58:09;18.19;73.80
65058;HTU21D;51644;51.068;5.860;2022-08-21T00:59:09;18.19;73.82
65058;HTU21D;51644;51.068;5.860;2022-08-21T01:00:13;18.18;73.80
65058;HTU21D;51644;51.068;5.860;2022-08-21T01:01:12;18.17;73.90
65058;HTU21D;51644;51.068;5.860;2022-08-21T01:02:12;18.15;73.92
65058;HTU21D;51644;51.068;5.860;2022-08-21T01:03:17;18.14;73.89
65058;HTU21D;51644;51.068;5.860;2022-08-21T01:04:16;18.12;73.94
65058;HTU21D;51644;51.068;5.860;2022-08-21T01:05:15;18.10;73.95
65058;HTU21D;51644;51.068;5.860;2022-08-21T01:06:17;18.07;74.03
65058;HTU21D;51644;51.068;5.860;2022-08-21T01:07:16;18.05;74.15
65058;HTU21D;51644;51.068;5.860;2022-08-21T01:08:17;18.04;74.22
65058;HTU21D;51644;51.068;5.860;2022-08-21T01:09:17;18.03;74.33
65058;HTU21D;51644;51.068;5.860;2022-08-21T01:10:17;18.02;74.38
65058;HTU21D;51644;51.068;5.860;2022-08-21T01:11:16;18.00;74.32
65058;HTU21D;51644;51.068;5.860;2022-08-21T01:12:15;18.02;74.30
65058;HTU21D;51644;51.068;5.860;2022-08-21T01:13:17;18.02;74.26
65058;HTU21D;51644;51.068;5.860;2022-08-21T01:14:17;18.00;74.27
65058;HTU21D;51644;51.068;5.860;2022-08-21T01:15:19;17.98;74.31
65058;HTU21D;51644;51.068;5.860;2022-08-21T01:16:20;17.98;74.32
65058;HTU21D;51644;51.068;5.860;2022-08-21T01:17:20;17.96;74.37
65058;HTU21D;51644;51.068;5.860;2022-08-21T01:18:20;17.96;74.38
65058;HTU21D;51644;51.068;5.860;2022-08-21T01:19:21;17.97;74.43
65058;HTU21D;51644;51.068;5.860;2022-08-21T01:20:20;17.95;74.40
65058;HTU21D;51644;51.068;5.860;2022-08-21T01:21:23;17.94;74.36
65058;HTU21D;51644;51.068;5.860;2022-08-21T01:22:22;17.94;74.36
65058;HTU21D;51644;51.068;5.860;2022-08-21T01:23:31;17.93;74.33
65058;HTU21D;51644;51.068;5.860;2022-08-21T01:24:30;17.94;74.33
65058;HTU21D;51644;51.068;5.860;2022-08-21T01:25:30;17.94;74.30
65058;HTU21D;51644;51.068;5.860;2022-08-21T01:26:32;17.94;74.33
65058;HTU21D;51644;51.068;5.860;2022-08-21T01:27:32;17.94;74.33
65058;HTU21D;51644;51.068;5.860;2022-08-21T01:28:36;17.93;74.33
65058;HTU21D;51644;51.068;5.860;2022-08-21T01:29:47;17.93;74.31
65058;HTU21D;51644;51.068;5.860;2022-08-21T01:30:50;17.93;74.22
65058;HTU21D;51644;51.068;5.860;2022-08-21T01:31:50;17.94;74.16
65058;HTU21D;51644;51.068;5.860;2022-08-21T01:32:49;17.93;74.06
65058;HTU21D;51644;51.068;5.860;2022-08-21T01:33:49;17.92;74.02
65058;HTU21D;51644;51.068;5.860;2022-08-21T01:34:49;17.92;73.97
65058;HTU21D;51644;51.068;5.860;2022-08-21T01:35:48;17.90;73.93
65058;HTU21D;51644;51.068;5.860;2022-08-21T01:36:48;17.91;73.92
65058;HTU21D;51644;51.068;5.860;2022-08-21T01:37:48;17.89;73.93
65058;HTU21D;51644;51.068;5.860;2022-08-21T01:38:49;17.91;73.86
65058;HTU21D;51644;51.068;5.860;2022-08-21T01:39:48;17.89;73.82
65058;HTU21D;51644;51.068;5.860;2022-08-21T01:40:47;17.89;73.82
65058;HTU21D;51644;51.068;5.860;2022-08-21T01:41:45;17.87;73.85
65058;HTU21D;51644;51.068;5.860;2022-08-21T01:42:45;17.89;73.82
65058;HTU21D;51644;51.068;5.860;2022-08-21T01:43:44;17.88;73.75
65058;HTU21D;51644;51.068;5.860;2022-08-21T01:44:43;17.89;73.70
65058;HTU21D;51644;51.068;5.860;2022-08-21T01:45:44;17.88;73.67
65058;HTU21D;51644;51.068;5.860;2022-08-21T01:46:42;17.85;73.67
65058;HTU21D;51644;51.068;5.860;2022-08-21T01:47:43;17.85;73.68
65058;HTU21D;51644;51.068;5.860;2022-08-21T01:48:42;17.84;73.73
65058;HTU21D;51644;51.068;5.860;2022-08-21T01:49:42;17.82;73.74
65058;HTU21D;51644;51.068;5.860;2022-08-21T01:50:41;17.83;73.70
65058;HTU21D;51644;51.068;5.860;2022-08-21T01:51:39;17.81;73.69
65058;HTU21D;51644;51.068;5.860;2022-08-21T01:52:38;17.79;73.62
65058;HTU21D;51644;51.068;5.860;2022-08-21T01:53:38;17.79;73.66
65058;HTU21D;51644;51.068;5.860;2022-08-21T01:54:39;17.79;73.57
65058;HTU21D;51644;51.068;5.860;2022-08-21T01:55:38;17.78;73.49
65058;HTU21D;51644;51.068;5.860;2022-08-21T01:56:40;17.76;73.51
65058;HTU21D;51644;51.068;5.860;2022-08-21T01:57:39;17.76;73.55
65058;HTU21D;51644;51.068;5.860;2022-08-21T01:58:43;17.75;73.52
65058;HTU21D;51644;51.068;5.860;2022-08-21T01:59:41;17.76;73.41
65058;HTU21D;51644;51.068;5.860;2022-08-21T02:00:40;17.73;73.34
65058;HTU21D;51644;51.068;5.860;2022-08-21T02:01:39;17.70;73.37
65058;HTU21D;51644;51.068;5.860;2022-08-21T02:02:39;17.68;73.48
65058;HTU21D;51644;51.068;5.860;2022-08-21T02:03:38;17.67;73.48
65058;HTU21D;51644;51.068;5.860;2022-08-21T02:04:36;17.66;73.45
65058;HTU21D;51644;51.068;5.860;2022-08-21T02:05:35;17.66;73.44
65058;HTU21D;51644;51.068;5.860;2022-08-21T02:06:34;17.65;73.54
65058;HTU21D;51644;51.068;5.860;2022-08-21T02:07:49;17.64;73.53
65058;HTU21D;51644;51.068;5.860;2022-08-21T02:08:48;17.66;73.45
65058;HTU21D;51644;51.068;5.860;2022-08-21T02:09:48;17.66;73.42
65058;HTU21D;51644;51.068;5.860;2022-08-21T02:10:47;17.65;73.42
65058;HTU21D;51644;51.068;5.860;2022-08-21T02:11:46;17.67;73.28
65058;HTU21D;51644;51.068;5.860;2022-08-21T02:12:45;17.66;73.27
65058;HTU21D;51644;51.068;5.860;2022-08-21T02:13:44;17.67;73.18
65058;HTU21D;51644;51.068;5.860;2022-08-21T02:14:43;17.66;73.13
65058;HTU21D;51644;51.068;5.860;2022-08-21T02:15:43;17.67;73.19
65058;HTU21D;51644;51.068;5.860;2022-08-21T02:16:43;17.67;73.13
65058;HTU21D;51644;51.068;5.860;2022-08-21T02:17:50;17.66;73.20
65058;HTU21D;51644;51.068;5.860;2022-08-21T02:18:49;17.66;73.27
65058;HTU21D;51644;51.068;5.860;2022-08-21T02:19:47;17.67;73.35
65058;HTU21D;51644;51.068;5.860;2022-08-21T02:20:48;17.66;73.41
65058;HTU21D;51644;51.068;5.860;2022-08-21T02:21:47;17.66;73.46
65058;HTU21D;51644;51.068;5.860;2022-08-21T02:22:45;17.66;73.54
65058;HTU21D;51644;51.068;5.860;2022-08-21T02:23:44;17.66;73.43
65058;HTU21D;51644;51.068;5.860;2022-08-21T02:24:43;17.65;73.29
65058;HTU21D;51644;51.068;5.860;2022-08-21T02:25:48;17.65;73.19
65058;HTU21D;51644;51.068;5.860;2022-08-21T02:26:47;17.63;73.07
65058;HTU21D;51644;51.068;5.860;2022-08-21T02:27:46;17.63;72.96
65058;HTU21D;51644;51.068;5.860;2022-08-21T02:28:49;17.60;72.87
65058;HTU21D;51644;51.068;5.860;2022-08-21T02:29:47;17.56;72.89
65058;HTU21D;51644;51.068;5.860;2022-08-21T02:30:48;17.54;72.88
65058;HTU21D;51644;51.068;5.860;2022-08-21T02:31:46;17.52;72.87
65058;HTU21D;51644;51.068;5.860;2022-08-21T02:32:45;17.50;72.96
65058;HTU21D;51644;51.068;5.860;2022-08-21T02:33:44;17.48;73.01
65058;HTU21D;51644;51.068;5.860;2022-08-21T02:34:43;17.48;73.07
65058;HTU21D;51644;51.068;5.860;2022-08-21T02:35:44;17.48;73.14
65058;HTU21D;51644;51.068;5.860;2022-08-21T02:36:43;17.48;73.15
65058;HTU21D;51644;51.068;5.860;2022-08-21T02:37:45;17.49;73.07
65058;HTU21D;51644;51.068;5.860;2022-08-21T02:38:45;17.49;73.06
65058;HTU21D;51644;51.068;5.860;2022-08-21T02:39:43;17.48;73.03
65058;HTU21D;51644;51.068;5.860;2022-08-21T02:40:47;17.50;72.96
65058;HTU21D;51644;51.068;5.860;2022-08-21T02:41:46;17.52;72.93
65058;HTU21D;51644;51.068;5.860;2022-08-21T02:42:45;17.53;72.96
65058;HTU21D;51644;51.068;5.860;2022-08-21T02:43:44;17.52;72.83
65058;HTU21D;51644;51.068;5.860;2022-08-21T02:44:43;17.53;72.76
65058;HTU21D;51644;51.068;5.860;2022-08-21T02:45:44;17.51;72.66
65058;HTU21D;51644;51.068;5.860;2022-08-21T02:46:45;17.51;72.56
65058;HTU21D;51644;51.068;5.860;2022-08-21T02:47:51;17.49;72.50
65058;HTU21D;51644;51.068;5.860;2022-08-21T02:48:51;17.46;72.50
65058;HTU21D;51644;51.068;5.860;2022-08-21T02:49:51;17.44;72.47
65058;HTU21D;51644;51.068;5.860;2022-08-21T02:51:14;17.41;72.48
65058;HTU21D;51644;51.068;5.860;2022-08-21T02:52:13;17.37;72.61
65058;HTU21D;51644;51.068;5.860;2022-08-21T02:53:14;17.36;72.54
65058;HTU21D;51644;51.068;5.860;2022-08-21T02:54:14;17.35;72.58
65058;HTU21D;51644;51.068;5.860;2022-08-21T02:55:15;17.33;72.61
65058;HTU21D;51644;51.068;5.860;2022-08-21T02:56:18;17.31;72.65
65058;HTU21D;51644;51.068;5.860;2022-08-21T02:57:20;17.31;72.70
65058;HTU21D;51644;51.068;5.860;2022-08-21T02:58:26;17.30;72.72
65058;HTU21D;51644;51.068;5.860;2022-08-21T02:59:25;17.31;72.88
65058;HTU21D;51644;51.068;5.860;2022-08-21T03:00:27;17.30;72.92
65058;HTU21D;51644;51.068;5.860;2022-08-21T03:01:26;17.29;72.91
65058;HTU21D;51644;51.068;5.860;2022-08-21T03:02:25;17.31;72.86
65058;HTU21D;51644;51.068;5.860;2022-08-21T03:03:38;17.31;72.80
65058;HTU21D;51644;51.068;5.860;2022-08-21T03:04:37;17.29;72.71
65058;HTU21D;51644;51.068;5.860;2022-08-21T03:05:37;17.26;72.67
65058;HTU21D;51644;51.068;5.860;2022-08-21T03:06:36;17.26;72.65
65058;HTU21D;51644;51.068;5.860;2022-08-21T03:07:35;17.23;72.67
65058;HTU21D;51644;51.068;5.860;2022-08-21T03:08:35;17.23;72.68
65058;HTU21D;51644;51.068;5.860;2022-08-21T03:09:34;17.24;72.70
65058;HTU21D;51644;51.068;5.860;2022-08-21T03:10:32;17.23;72.69
65058;HTU21D;51644;51.068;5.860;2022-08-21T03:11:32;17.23;72.67
65058;HTU21D;51644;51.068;5.860;2022-08-21T03:12:30;17.21;72.72
65058;HTU21D;51644;51.068;5.860;2022-08-21T03:13:29;17.21;72.75
65058;HTU21D;51644;51.068;5.860;2022-08-21T03:14:27;17.20;72.77
65058;HTU21D;51644;51.068;5.860;2022-08-21T03:15:26;17.20;72.74
65058;HTU21D;51644;51.068;5.860;2022-08-21T03:16:25;17.17;72.75
65058;HTU21D;51644;51.068;5.860;2022-08-21T03:17:24;17.17;72.80
65058;HTU21D;51644;51.068;5.860;2022-08-21T03:18:29;17.16;72.75
65058;HTU21D;51644;51.068;5.860;2022-08-21T03:19:28;17.14;72.76
65058;HTU21D;51644;51.068;5.860;2022-08-21T03:20:28;17.15;72.76
65058;HTU21D;51644;51.068;5.860;2022-08-21T03:21:26;17.14;72.74
65058;HTU21D;51644;51.068;5.860;2022-08-21T03:22:27;17.17;72.80
65058;HTU21D;51644;51.068;5.860;2022-08-21T03:23:25;17.18;72.85
65058;HTU21D;51644;51.068;5.860;2022-08-21T03:24:24;17.18;72.77
65058;HTU21D;51644;51.068;5.860;2022-08-21T03:25:25;17.19;72.73
65058;HTU21D;51644;51.068;5.860;2022-08-21T03:26:24;17.19;72.73
65058;HTU21D;51644;51.068;5.860;2022-08-21T03:27:23;17.18;72.67
65058;HTU21D;51644;51.068;5.860;2022-08-21T03:28:25;17.17;72.65
65058;HTU21D;51644;51.068;5.860;2022-08-21T03:29:23;17.18;72.55
65058;HTU21D;51644;51.068;5.860;2022-08-21T03:30:22;17.17;72.54
65058;HTU21D;51644;51.068;5.860;2022-08-21T03:31:20;17.17;72.45
65058;HTU21D;51644;51.068;5.860;2022-08-21T03:32:20;17.15;72.47
65058;HTU21D;51644;51.068;5.860;2022-08-21T03:33:20;17.15;72.41
65058;HTU21D;51644;51.068;5.860;2022-08-21T03:34:18;17.11;72.41
65058;HTU21D;51644;51.068;5.860;2022-08-21T03:35:17;17.10;72.41
65058;HTU21D;51644;51.068;5.860;2022-08-21T03:36:16;17.09;72.38
65058;HTU21D;51644;51.068;5.860;2022-08-21T03:37:15;17.07;72.38
65058;HTU21D;51644;51.068;5.860;2022-08-21T03:38:14;17.05;72.47
65058;HTU21D;51644;51.068;5.860;2022-08-21T03:39:13;17.03;72.46
65058;HTU21D;51644;51.068;5.860;2022-08-21T03:40:14;17.02;72.54
65058;HTU21D;51644;51.068;5.860;2022-08-21T03:41:13;17.00;72.57
65058;HTU21D;51644;51.068;5.860;2022-08-21T03:42:11;17.01;72.55
65058;HTU21D;51644;51.068;5.860;2022-08-21T03:43:10;17.02;72.58
65058;HTU21D;51644;51.068;5.860;2022-08-21T03:44:09;17.02;72.53
65058;HTU21D;51644;51.068;5.860;2022-08-21T03:45:08;17.03;72.47
65058;HTU21D;51644;51.068;5.860;2022-08-21T03:46:07;17.04;72.43
65058;HTU21D;51644;51.068;5.860;2022-08-21T03:47:06;17.01;72.54
65058;HTU21D;51644;51.068;5.860;2022-08-21T03:48:07;17.00;72.48
65058;HTU21D;51644;51.068;5.860;2022-08-21T03:49:06;16.98;72.50
65058;HTU21D;51644;51.068;5.860;2022-08-21T03:50:05;16.99;72.45
65058;HTU21D;51644;51.068;5.860;2022-08-21T03:51:04;16.95;72.51
65058;HTU21D;51644;51.068;5.860;2022-08-21T03:52:04;16.92;72.61
65058;HTU21D;51644;51.068;5.860;2022-08-21T03:53:03;16.94;72.64
65058;HTU21D;51644;51.068;5.860;2022-08-21T03:54:02;16.92;72.72
65058;HTU21D;51644;51.068;5.860;2022-08-21T03:55:01;16.91;72.75
65058;HTU21D;51644;51.068;5.860;2022-08-21T03:56:00;16.92;72.70
65058;HTU21D;51644;51.068;5.860;2022-08-21T03:56:59;16.92;72.70
65058;HTU21D;51644;51.068;5.860;2022-08-21T03:57:57;16.90;72.71
65058;HTU21D;51644;51.068;5.860;2022-08-21T03:58:56;16.89;72.77
65058;HTU21D;51644;51.068;5.860;2022-08-21T03:59:55;16.90;72.77
65058;HTU21D;51644;51.068;5.860;2022-08-21T04:00:57;16.90;72.78
65058;HTU21D;51644;51.068;5.860;2022-08-21T04:02:01;16.89;72.82
65058;HTU21D;51644;51.068;5.860;2022-08-21T04:03:00;16.91;72.83
65058;HTU21D;51644;51.068;5.860;2022-08-21T04:03:59;16.91;72.85
65058;HTU21D;51644;51.068;5.860;2022-08-21T04:04:58;16.92;72.78
65058;HTU21D;51644;51.068;5.860;2022-08-21T04:05:56;16.92;72.77
65058;HTU21D;51644;51.068;5.860;2022-08-21T04:06:56;16.91;72.65
65058;HTU21D;51644;51.068;5.860;2022-08-21T04:08:06;16.89;72.66
65058;HTU21D;51644;51.068;5.860;2022-08-21T04:09:04;16.89;72.70
65058;HTU21D;51644;51.068;5.860;2022-08-21T04:10:05;16.87;72.70
65058;HTU21D;51644;51.068;5.860;2022-08-21T04:11:05;16.88;72.73
65058;HTU21D;51644;51.068;5.860;2022-08-21T04:12:04;16.88;72.63
65058;HTU21D;51644;51.068;5.860;2022-08-21T04:13:06;16.89;72.62
65058;HTU21D;51644;51.068;5.860;2022-08-21T04:14:05;16.89;72.57
65058;HTU21D;51644;51.068;5.860;2022-08-21T04:15:04;16.87;72.58
65058;HTU21D;51644;51.068;5.860;2022-08-21T04:16:03;16.87;72.62
65058;HTU21D;51644;51.068;5.860;2022-08-21T04:17:02;16.87;72.64
65058;HTU21D;51644;51.068;5.860;2022-08-21T04:18:01;16.87;72.62
65058;HTU21D;51644;51.068;5.860;2022-08-21T04:19:00;16.86;72.65
65058;HTU21D;51644;51.068;5.860;2022-08-21T04:19:58;16.82;72.72
65058;HTU21D;51644;51.068;5.860;2022-08-21T04:20:59;16.80;72.70
65058;HTU21D;51644;51.068;5.860;2022-08-21T04:21:58;16.78;72.83
65058;HTU21D;51644;51.068;5.860;2022-08-21T04:22:57;16.75;72.91
65058;HTU21D;51644;51.068;5.860;2022-08-21T04:23:55;16.75;72.97
65058;HTU21D;51644;51.068;5.860;2022-08-21T04:24:54;16.74;72.99
65058;HTU21D;51644;51.068;5.860;2022-08-21T04:25:55;16.72;73.02
65058;HTU21D;51644;51.068;5.860;2022-08-21T04:26:54;16.72;73.06
65058;HTU21D;51644;51.068;5.860;2022-08-21T04:27:53;16.72;73.07
65058;HTU21D;51644;51.068;5.860;2022-08-21T04:28:51;16.72;73.07
65058;HTU21D;51644;51.068;5.860;2022-08-21T04:29:50;16.74;73.11
65058;HTU21D;51644;51.068;5.860;2022-08-21T04:30:51;16.74;73.09
65058;HTU21D;51644;51.068;5.860;2022-08-21T04:31:50;16.76;73.03
65058;HTU21D;51644;51.068;5.860;2022-08-21T04:32:50;16.76;72.95
65058;HTU21D;51644;51.068;5.860;2022-08-21T04:33:49;16.76;72.93
65058;HTU21D;51644;51.068;5.860;2022-08-21T04:34:48;16.74;72.93
65058;HTU21D;51644;51.068;5.860;2022-08-21T04:35:48;16.76;72.98
65058;HTU21D;51644;51.068;5.860;2022-08-21T04:36:47;16.75;72.97
65058;HTU21D;51644;51.068;5.860;2022-08-21T04:37:46;16.75;72.93
65058;HTU21D;51644;51.068;5.860;2022-08-21T04:38:45;16.75;72.88
65058;HTU21D;51644;51.068;5.860;2022-08-21T04:39:46;16.74;72.90
65058;HTU21D;51644;51.068;5.860;2022-08-21T04:40:49;16.74;72.88
65058;HTU21D;51644;51.068;5.860;2022-08-21T04:41:48;16.73;72.93
65058;HTU21D;51644;51.068;5.860;2022-08-21T04:42:53;16.74;72.93
65058;HTU21D;51644;51.068;5.860;2022-08-21T04:43:52;16.74;72.89
65058;HTU21D;51644;51.068;5.860;2022-08-21T04:44:51;16.76;72.83
65058;HTU21D;51644;51.068;5.860;2022-08-21T04:45:57;16.75;72.83
65058;HTU21D;51644;51.068;5.860;2022-08-21T04:46:56;16.74;72.80
65058;HTU21D;51644;51.068;5.860;2022-08-21T04:48:03;16.74;72.81
65058;HTU21D;51644;51.068;5.860;2022-08-21T04:49:05;16.72;72.80
65058;HTU21D;51644;51.068;5.860;2022-08-21T04:50:11;16.72;72.81
65058;HTU21D;51644;51.068;5.860;2022-08-21T04:51:32;16.67;72.86
65058;HTU21D;51644;51.068;5.860;2022-08-21T04:52:32;16.67;72.87
65058;HTU21D;51644;51.068;5.860;2022-08-21T04:53:41;16.67;72.87
65058;HTU21D;51644;51.068;5.860;2022-08-21T04:54:45;16.65;72.86
65058;HTU21D;51644;51.068;5.860;2022-08-21T04:55:45;16.67;72.83
65058;HTU21D;51644;51.068;5.860;2022-08-21T04:56:57;16.65;72.84
65058;HTU21D;51644;51.068;5.860;2022-08-21T04:57:59;16.67;72.86
65058;HTU21D;51644;51.068;5.860;2022-08-21T04:59:02;16.66;72.77
65058;HTU21D;51644;51.068;5.860;2022-08-21T05:00:03;16.70;72.77
65058;HTU21D;51644;51.068;5.860;2022-08-21T05:01:07;16.69;72.71
65058;HTU21D;51644;51.068;5.860;2022-08-21T05:02:08;16.71;72.67
65058;HTU21D;51644;51.068;5.860;2022-08-21T05:03:10;16.73;72.62
65058;HTU21D;51644;51.068;5.860;2022-08-21T05:04:13;16.75;72.58
65058;HTU21D;51644;51.068;5.860;2022-08-21T05:05:12;16.77;72.54
65058;HTU21D;51644;51.068;5.860;2022-08-21T05:06:13;16.75;72.57
65058;HTU21D;51644;51.068;5.860;2022-08-21T05:07:23;16.79;72.45
65058;HTU21D;51644;51.068;5.860;2022-08-21T05:08:27;16.79;72.42
65058;HTU21D;51644;51.068;5.860;2022-08-21T05:09:27;16.80;72.41
65058;HTU21D;51644;51.068;5.860;2022-08-21T05:10:27;16.80;72.44
65058;HTU21D;51644;51.068;5.860;2022-08-21T05:11:25;16.81;72.48
65058;HTU21D;51644;51.068;5.860;2022-08-21T05:12:24;16.81;72.53
65058;HTU21D;51644;51.068;5.860;2022-08-21T05:13:23;16.80;72.51
65058;HTU21D;51644;51.068;5.860;2022-08-21T05:14:21;16.81;72.59
65058;HTU21D;51644;51.068;5.860;2022-08-21T05:15:20;16.80;72.65
65058;HTU21D;51644;51.068;5.860;2022-08-21T05:16:19;16.77;72.66
65058;HTU21D;51644;51.068;5.860;2022-08-21T05:17:18;16.78;72.74
65058;HTU21D;51644;51.068;5.860;2022-08-21T05:18:16;16.77;72.77
65058;HTU21D;51644;51.068;5.860;2022-08-21T05:19:15;16.80;72.78
65058;HTU21D;51644;51.068;5.860;2022-08-21T05:20:14;16.80;72.83
65058;HTU21D;51644;51.068;5.860;2022-08-21T05:21:13;16.82;72.86
65058;HTU21D;51644;51.068;5.860;2022-08-21T05:22:19;16.86;72.83
65058;HTU21D;51644;51.068;5.860;2022-08-21T05:23:17;16.85;72.82
65058;HTU21D;51644;51.068;5.860;2022-08-21T05:24:16;16.87;72.78
65058;HTU21D;51644;51.068;5.860;2022-08-21T05:25:15;16.89;72.74
65058;HTU21D;51644;51.068;5.860;2022-08-21T05:26:14;16.88;72.76
65058;HTU21D;51644;51.068;5.860;2022-08-21T05:27:13;16.89;72.69
65058;HTU21D;51644;51.068;5.860;2022-08-21T05:28:11;16.89;72.64
65058;HTU21D;51644;51.068;5.860;2022-08-21T05:29:11;16.91;72.64
65058;HTU21D;51644;51.068;5.860;2022-08-21T05:30:10;16.92;72.58
65058;HTU21D;51644;51.068;5.860;2022-08-21T05:31:09;16.92;72.61
65058;HTU21D;51644;51.068;5.860;2022-08-21T05:32:10;16.93;72.58
65058;HTU21D;51644;51.068;5.860;2022-08-21T05:33:08;16.94;72.56
65058;HTU21D;51644;51.068;5.860;2022-08-21T05:34:08;16.95;72.59
65058;HTU21D;51644;51.068;5.860;2022-08-21T05:35:07;16.98;72.61
65058;HTU21D;51644;51.068;5.860;2022-08-21T05:36:06;16.99;72.60
65058;HTU21D;51644;51.068;5.860;2022-08-21T05:37:05;17.03;72.60
65058;HTU21D;51644;51.068;5.860;2022-08-21T05:38:04;17.02;72.63
65058;HTU21D;51644;51.068;5.860;2022-08-21T05:39:03;17.03;72.57
65058;HTU21D;51644;51.068;5.860;2022-08-21T05:40:04;17.03;72.55
65058;HTU21D;51644;51.068;5.860;2022-08-21T05:41:03;17.04;72.54
65058;HTU21D;51644;51.068;5.860;2022-08-21T05:42:01;17.05;72.58
65058;HTU21D;51644;51.068;5.860;2022-08-21T05:43:00;17.05;72.62
65058;HTU21D;51644;51.068;5.860;2022-08-21T05:43:59;17.08;72.62
65058;HTU21D;51644;51.068;5.860;2022-08-21T05:44:58;17.09;72.61
65058;HTU21D;51644;51.068;5.860;2022-08-21T05:45:56;17.11;72.62
65058;HTU21D;51644;51.068;5.860;2022-08-21T05:46:55;17.13;72.68
65058;HTU21D;51644;51.068;5.860;2022-08-21T05:47:54;17.15;72.64
65058;HTU21D;51644;51.068;5.860;2022-08-21T05:48:52;17.17;72.59
65058;HTU21D;51644;51.068;5.860;2022-08-21T05:49:51;17.17;72.53
65058;HTU21D;51644;51.068;5.860;2022-08-21T05:50:51;17.18;72.54
65058;HTU21D;51644;51.068;5.860;2022-08-21T05:51:50;17.19;72.54
65058;HTU21D;51644;51.068;5.860;2022-08-21T05:52:48;17.19;72.58
65058;HTU21D;51644;51.068;5.860;2022-08-21T05:53:47;17.21;72.59
65058;HTU21D;51644;51.068;5.860;2022-08-21T05:54:45;17.23;72.60
65058;HTU21D;51644;51.068;5.860;2022-08-21T05:55:47;17.28;72.57
65058;HTU21D;51644;51.068;5.860;2022-08-21T05:56:46;17.29;72.55
65058;HTU21D;51644;51.068;5.860;2022-08-21T05:57:45;17.32;72.44
65058;HTU21D;51644;51.068;5.860;2022-08-21T05:58:43;17.35;72.40
65058;HTU21D;51644;51.068;5.860;2022-08-21T05:59:42;17.34;72.43
65058;HTU21D;51644;51.068;5.860;2022-08-21T06:00:42;17.37;72.27
65058;HTU21D;51644;51.068;5.860;2022-08-21T06:01:41;17.41;72.15
65058;HTU21D;51644;51.068;5.860;2022-08-21T06:02:40;17.41;72.06
65058;HTU21D;51644;51.068;5.860;2022-08-21T06:03:40;17.41;72.06
65058;HTU21D;51644;51.068;5.860;2022-08-21T06:04:40;17.44;72.00
65058;HTU21D;51644;51.068;5.860;2022-08-21T06:05:38;17.46;71.92
65058;HTU21D;51644;51.068;5.860;2022-08-21T06:06:37;17.45;71.98
65058;HTU21D;51644;51.068;5.860;2022-08-21T06:07:36;17.47;71.89
65058;HTU21D;51644;51.068;5.860;2022-08-21T06:08:35;17.47;71.91
65058;HTU21D;51644;51.068;5.860;2022-08-21T06:09:34;17.49;71.87
65058;HTU21D;51644;51.068;5.860;2022-08-21T06:10:32;17.50;71.87
65058;HTU21D;51644;51.068;5.860;2022-08-21T06:11:32;17.51;71.87
65058;HTU21D;51644;51.068;5.860;2022-08-21T06:12:31;17.52;71.82
65058;HTU21D;51644;51.068;5.860;2022-08-21T06:13:30;17.52;71.80
65058;HTU21D;51644;51.068;5.860;2022-08-21T06:14:28;17.53;71.78
65058;HTU21D;51644;51.068;5.860;2022-08-21T06:15:27;17.54;71.86